CDT,Max TemperatureF,Mean TemperatureF,Min TemperatureF,Max Dew PointF,MeanDew PointF,Min DewpointF,Max Humidity, Mean Humidity, Min Humidity, Max Sea Level PressureIn, Mean Sea Level PressureIn, Min Sea Level PressureIn, Max VisibilityMiles, Mean VisibilityMiles, Min VisibilityMiles, Max Wind SpeedMPH, Mean Wind SpeedMPH, Max Gust SpeedMPH,PrecipitationIn, CloudCover, Events, WindDirDegrees
2013-8-1,89,77,65,69,65,62,92,71,42,30.27,30.18,30.09,10,10,10,23,6,33,0.00,1,Rain-Thunderstorm,179
2013-8-2,94,81,68,64,58,51,84,49,25,30.11,30.02,29.95,10,10,10,22,10,31,0.00,0,,199
2013-8-3,96,84,73,66,56,51,66,41,23,30.14,30.06,30.01,10,10,10,15,9,22,0.00,1,,192
2013-8-4,92,81,70,66,57,51,81,47,25,30.18,30.13,30.07,10,10,10,20,7,25,0.00,1,,188
2013-8-5,94,80,66,60,56,47,79,45,22,30.13,30.06,29.96,10,10,10,18,9,25,0.00,0,,194
2013-8-6,100,84,68,60,54,43,67,37,15,30.02,29.96,29.89,10,10,10,17,10,28,0.00,0,,204
2013-8-7,96,78,62,62,57,50,88,52,21,30.05,29.99,29.92,10,10,5,29,8,45,0.00,1,Rain,76
2013-8-8,87,72,60,66,63,58,96,75,46,30.10,30.01,29.96,10,9,2,16,8,45,0.52,4,Rain-Thunderstorm,36
2013-8-9,78,70,61,63,60,57,94,75,48,30.27,30.16,30.08,10,10,5,18,8,25,0.33,3,,2
2013-8-10,86,74,61,61,59,54,94,67,33,30.31,30.25,30.16,10,8,3,13,3,17,0.00,0,,149
2013-8-11,81,74,67,62,59,55,80,65,44,30.25,30.20,30.14,10,10,10,22,9,28,0.00,3,Rain,214
2013-8-12,89,76,63,66,63,61,93,73,39,30.20,30.16,30.10,10,10,7,15,5,24,0.08,3,Rain-Thunderstorm,188
2013-8-13,87,75,63,67,63,61,93,71,44,30.20,30.16,30.10,10,10,4,17,5,22,0.04,2,Rain-Thunderstorm,93
2013-8-14,86,74,62,67,64,59,92,73,42,30.26,30.18,30.09,10,9,3,24,6,29,0.01,4,Rain-Thunderstorm,154
2013-8-15,90,76,61,64,61,56,91,66,32,30.20,30.14,30.07,10,10,10,14,6,20,0.00,1,,222
2013-8-16,88,76,63,65,61,56,88,63,34,30.20,30.15,30.09,10,10,10,18,8,23,0.00,0,Thunderstorm,173
2013-8-17,92,77,62,62,59,54,93,59,27,30.21,30.15,30.05,10,10,7,20,9,25,0.00,0,,174
2013-8-18,94,76,59,62,57,53,93,56,25,30.16,30.12,30.05,10,10,4,16,10,22,0.00,0,,164
2013-8-19,96,79,62,59,56,52,83,49,23,30.14,30.08,30.01,10,10,10,16,8,25,0.00,0,,174
2013-8-20,96,78,59,60,56,49,88,51,21,30.12,30.07,30.03,10,10,10,20,7,26,0.00,0,,151
2013-8-21,92,79,66,58,53,44,68,43,19,30.19,30.14,30.10,10,10,7,17,11,25,0.00,0,,176
2013-8-22,93,75,57,54,48,35,83,43,14,30.20,30.15,30.08,10,10,7,16,8,25,0.00,0,,189
2013-8-23,92,76,59,58,55,47,84,48,22,30.17,30.13,30.06,10,10,10,20,8,26,0.00,1,,189
2013-8-24,92,76,61,59,55,51,86,51,25,30.21,30.17,30.13,10,10,10,17,8,25,0.00,0,,182
2013-8-25,93,78,63,60,56,50,82,49,24,30.29,30.24,30.19,10,10,10,21,8,26,0.00,0,,171
2013-8-26,91,78,64,60,56,50,79,50,26,30.30,30.25,30.18,10,10,10,17,9,23,0.00,1,,170
2013-8-27,90,75,60,60,54,48,85,51,23,30.23,30.17,30.10,10,10,7,17,7,23,0.00,1,,180
2013-8-28,92,78,63,61,56,51,84,51,28,30.19,30.15,30.12,10,10,10,16,9,24,0.00,0,,196
2013-8-29,92,77,62,56,54,49,75,45,27,30.21,30.16,30.10,10,10,2,18,9,24,0.00,0,,194
2013-8-30,99,80,63,54,52,48,70,38,18,30.16,30.10,30.03,10,10,10,14,7,20,0.00,0,,206
2013-8-31,99,86,72,53,48,42,48,28,15,30.07,30.02,29.97,10,10,7,15,10,22,0.00,0,,191